Hauptseite
METAR-TAF:

METAR-TAF

Flughäfen :

Flughafen Kunming-Changshui

Kunming, China

Breite: 25-01N, Länge: 102-41E, Höhe: 1892 m

Beobachtung

Neuester Wetterbericht von vor 1 Stunde und 8 Minuten, um 07:00 UTC
Wind 16 kt aus Nordost, variierte zwischen Nord/Nordost und Ost
Temperatur 17°C
Luftfeuchtigkeit 72%
Luftdruck 1023 hPa
Sichtweite 10 km oder mehr
Durchbrochene Bewölkung in der Höhe von 2000 ft
Durchbrochene Bewölkung in der Höhe von 4300 ft

METAR: ZPPP 270700Z 04008MPS 020V080 9999 BKN020 BKN043 17/12 Q1023 NOSIG

Zeit: 16:08 (08:08 UTC)

Prognose

Neuester Wetterbericht von vor 6 Stunden und 57 Minuten, um 01:11 UTC
Gültige Prognose vom 27 um 06 UTC bis 28 um 06 UTC
Wind 12 kt aus Nordost
Sichtweite 10 km oder mehr
Aufgelockert bewölkt in der Höhe von 2000 ft
Durchbrochene Bewölkung in der Höhe von 3300 ft

TAF: ZPPP 270111Z 2706/2806 04006MPS 9999 SCT020 BKN033 TX19/2708Z TN12/2723Z

Wetterbeobachtungen und Prognosen von mehr als 4000 Flughäfen (METAR und TAF Bericht).

Die verfügbaren Stationen werden durch gelbe und rote Markierungen auf der Karte dargestellt.

Führen Sie die Maus auf sie, um den Namen der Station zu sehen.

Darauf klicken, um die Beobachtung von Wetterbeobachtungen und Prognosen zu sehen.

Um die Karte zu ändern : klicken Sie auf den grünen Tasten mit einem schwarzen Kreuz Zum Vergrößern, auf den grünen Button mit einem Gedankenstrich zu verkleinern, oder auf die grünen Pfeile für benachbarte Karten.


METAR-TAF: